createdAt,value
2023-05-03T00:01:01.488Z,6.60
2023-05-03T00:03:52.586Z,6.60
2023-05-03T00:06:43.981Z,6.70
2023-05-03T00:09:33.395Z,6.70
2023-05-03T00:12:20.861Z,6.50
2023-05-03T00:15:09.780Z,6.50
2023-05-03T00:17:57.842Z,6.50
2023-05-03T00:20:45.532Z,6.40
2023-05-03T00:23:32.984Z,6.30
2023-05-03T00:26:21.512Z,6.40
2023-05-03T00:29:08.971Z,6.50
2023-05-03T00:31:56.495Z,6.40
2023-05-03T00:34:44.334Z,6.20
2023-05-03T00:37:32.610Z,6.10
2023-05-03T00:40:20.307Z,6.10
2023-05-03T00:43:07.867Z,6.10
2023-05-03T00:46:04.631Z,6.00
2023-05-03T00:49:00.473Z,6.00
2023-05-03T00:51:48.796Z,6.10
2023-05-03T00:54:37.585Z,6.00
2023-05-03T00:57:27.468Z,6.10
2023-05-03T01:00:15.625Z,6.20
2023-05-03T01:03:03.179Z,6.00
2023-05-03T01:06:20.781Z,6.00
2023-05-03T01:09:17.461Z,5.90
2023-05-03T01:12:17.379Z,5.80
2023-05-03T01:15:35.040Z,5.90
2023-05-03T01:18:31.153Z,5.90
2023-05-03T01:21:19.142Z,5.70
2023-05-03T01:24:13.702Z,5.70
2023-05-03T01:27:01.147Z,5.70
2023-05-03T01:29:48.637Z,5.70
2023-05-03T01:33:13.109Z,5.70
2023-05-03T01:36:18.819Z,5.50
2023-05-03T01:39:14.613Z,5.40
2023-05-03T01:42:03.914Z,5.50
2023-05-03T01:44:54.802Z,5.50
2023-05-03T01:47:42.518Z,5.40
2023-05-03T01:50:30.111Z,5.20
2023-05-03T01:53:17.691Z,5.10
2023-05-03T01:56:06.155Z,5.20
2023-05-03T01:58:53.767Z,5.20
2023-05-03T02:01:41.609Z,5.10
2023-05-03T02:04:30.459Z,5.20
2023-05-03T02:07:18.119Z,5.10
2023-05-03T02:10:06.708Z,5.20
2023-05-03T02:12:54.271Z,5.20
2023-05-03T02:15:41.800Z,5.20
2023-05-03T02:18:31.523Z,5.10
2023-05-03T02:21:19.075Z,5.00
2023-05-03T02:24:06.851Z,5.00
2023-05-03T02:26:54.431Z,5.10
2023-05-03T02:29:42.006Z,5.10
2023-05-03T02:32:29.542Z,5.10
2023-05-03T02:35:17.118Z,5.20
2023-05-03T02:38:04.748Z,5.10
2023-05-03T02:40:52.317Z,5.20
2023-05-03T02:43:39.714Z,5.30
2023-05-03T02:46:27.331Z,5.30
2023-05-03T02:49:14.869Z,5.20
2023-05-03T02:52:02.340Z,5.20
2023-05-03T02:54:50.571Z,5.20
2023-05-03T02:57:39.050Z,5.30
2023-05-03T03:00:28.059Z,5.20
2023-05-03T03:03:15.583Z,5.10
2023-05-03T03:06:03.355Z,5.20
2023-05-03T03:08:50.870Z,4.90
2023-05-03T03:11:38.485Z,4.90
2023-05-03T03:14:25.941Z,4.80
2023-05-03T03:17:13.641Z,4.80
2023-05-03T03:20:06.243Z,4.70
2023-05-03T03:22:53.840Z,4.70
2023-05-03T03:25:42.439Z,4.70
2023-05-03T03:28:29.900Z,4.70
2023-05-03T03:31:18.461Z,4.70
2023-05-03T03:34:06.095Z,4.60
2023-05-03T03:36:53.673Z,4.50
2023-05-03T03:39:41.162Z,4.30
2023-05-03T03:42:28.686Z,4.30
2023-05-03T03:45:16.482Z,4.30
2023-05-03T03:48:04.162Z,4.20
2023-05-03T03:50:52.673Z,4.30
2023-05-03T03:53:40.186Z,4.30
2023-05-03T03:56:28.018Z,4.30
2023-05-03T03:59:15.627Z,4.40
2023-05-03T04:02:06.330Z,4.30
2023-05-03T04:04:53.853Z,4.60
2023-05-03T04:07:41.422Z,4.70
2023-05-03T04:10:28.980Z,4.70
2023-05-03T04:13:16.495Z,4.70
2023-05-03T04:16:05.086Z,4.80
2023-05-03T04:18:52.775Z,4.90
2023-05-03T04:21:40.287Z,5.00
2023-05-03T04:24:30.701Z,4.90
2023-05-03T04:27:18.866Z,4.80
2023-05-03T04:30:07.782Z,4.80
2023-05-03T04:32:55.635Z,5.30
2023-05-03T04:35:44.302Z,6.10
2023-05-03T04:38:32.517Z,6.40
2023-05-03T04:41:20.746Z,7.00
2023-05-03T04:44:08.361Z,7.40
2023-05-03T04:46:56.635Z,7.90
2023-05-03T04:49:44.320Z,8.20
2023-05-03T04:52:31.906Z,8.60
2023-05-03T04:55:19.571Z,9.20
2023-05-03T04:58:09.469Z,9.70
2023-05-03T05:00:57.588Z,10.20
2023-05-03T05:03:45.496Z,10.60
2023-05-03T05:06:35.419Z,11.50
2023-05-03T05:09:25.958Z,11.60
2023-05-03T05:12:13.578Z,12.40
2023-05-03T05:15:01.089Z,13.30
2023-05-03T05:17:49.124Z,14.00
2023-05-03T05:20:36.793Z,14.60
2023-05-03T05:23:24.257Z,14.80
2023-05-03T05:26:11.752Z,14.80
2023-05-03T05:28:59.260Z,14.60
2023-05-03T05:31:49.157Z,14.50
2023-05-03T05:34:45.130Z,13.50
2023-05-03T05:37:33.586Z,13.80
2023-05-03T05:40:21.379Z,13.70
2023-05-03T05:43:09.653Z,14.20
2023-05-03T05:46:02.935Z,14.20
2023-05-03T05:48:52.531Z,14.10
2023-05-03T05:51:40.065Z,14.50
2023-05-03T05:54:28.691Z,14.80
2023-05-03T05:57:18.473Z,15.80
2023-05-03T06:00:14.663Z,15.70
2023-05-03T06:03:02.430Z,15.90
2023-05-03T06:05:50.018Z,16.10
2023-05-03T06:08:37.664Z,15.50
2023-05-03T06:11:46.731Z,15.30
2023-05-03T06:14:34.388Z,15.20
2023-05-03T06:17:23.637Z,14.70
2023-05-03T06:20:14.202Z,14.50
2023-05-03T06:23:01.999Z,14.20
2023-05-03T06:25:52.061Z,14.50
2023-05-03T06:28:39.864Z,15.40
2023-05-03T06:31:27.765Z,16.20
2023-05-03T06:34:22.063Z,16.50
2023-05-03T06:37:09.769Z,17.40
2023-05-03T06:39:57.269Z,17.60
2023-05-03T06:42:44.953Z,17.10
2023-05-03T06:45:32.559Z,17.30
2023-05-03T06:48:21.567Z,16.60
2023-05-03T06:51:12.815Z,16.00
2023-05-03T06:54:06.846Z,16.20
2023-05-03T06:56:54.980Z,16.00
2023-05-03T06:59:42.786Z,16.00
2023-05-03T07:02:30.879Z,16.60
2023-05-03T07:05:19.335Z,16.90
2023-05-03T07:08:07.645Z,17.00
2023-05-03T07:10:55.581Z,16.50
2023-05-03T07:13:43.434Z,15.80
2023-05-03T07:16:31.206Z,16.80
2023-05-03T07:19:19.175Z,17.00
2023-05-03T07:22:14.391Z,17.30
2023-05-03T07:25:02.239Z,17.50
2023-05-03T07:27:50.690Z,17.90
2023-05-03T07:30:38.487Z,18.10
2023-05-03T07:33:28.813Z,18.60
2023-05-03T07:36:16.681Z,18.90
2023-05-03T07:39:06.088Z,18.40
2023-05-03T07:41:53.582Z,18.70
2023-05-03T07:44:42.314Z,19.60
2023-05-03T07:47:30.144Z,20.50
2023-05-03T07:50:18.020Z,20.90
2023-05-03T07:53:05.871Z,20.50
2023-05-03T07:55:58.953Z,20.90
2023-05-03T07:58:50.970Z,20.60
2023-05-03T08:01:45.089Z,20.00
2023-05-03T08:04:34.635Z,21.10
2023-05-03T08:07:23.844Z,21.50
2023-05-03T08:10:11.850Z,20.70
2023-05-03T08:13:05.932Z,20.90
2023-05-03T08:15:53.770Z,21.70
2023-05-03T08:18:44.481Z,21.70
2023-05-03T08:21:48.465Z,21.80
2023-05-03T08:24:36.179Z,21.20
2023-05-03T08:27:28.886Z,20.80
2023-05-03T08:30:26.897Z,21.20
2023-05-03T08:33:15.972Z,22.60
2023-05-03T08:36:10.114Z,22.70
2023-05-03T08:38:58.740Z,23.50
2023-05-03T08:41:51.271Z,22.50
2023-05-03T08:44:49.142Z,22.70
2023-05-03T08:47:39.659Z,22.80
2023-05-03T08:50:28.549Z,22.00
2023-05-03T08:53:17.645Z,22.40
2023-05-03T08:56:12.598Z,22.90
2023-05-03T08:59:08.164Z,24.10
2023-05-03T09:01:58.266Z,24.00
2023-05-03T09:04:46.365Z,21.20
2023-05-03T09:07:36.745Z,22.10
2023-05-03T09:10:26.101Z,23.90
2023-05-03T09:13:16.730Z,24.80
2023-05-03T09:16:05.555Z,24.50
2023-05-03T09:19:00.277Z,22.50
2023-05-03T09:21:48.437Z,21.60
2023-05-03T09:24:37.928Z,21.30
2023-05-03T09:27:27.822Z,22.20
2023-05-03T09:30:19.589Z,23.80
2023-05-03T09:33:11.518Z,24.70
2023-05-03T09:36:05.368Z,25.70
2023-05-03T09:38:57.902Z,25.60
2023-05-03T09:41:48.704Z,25.80
2023-05-03T09:44:52.182Z,25.40
2023-05-03T09:47:54.210Z,24.90
2023-05-03T09:50:51.835Z,24.30
2023-05-03T09:53:42.683Z,24.00
2023-05-03T09:56:31.244Z,22.50
2023-05-03T09:59:19.145Z,19.90
2023-05-03T10:02:08.538Z,20.90
2023-05-03T10:04:57.500Z,23.20
2023-05-03T10:07:51.091Z,23.40
2023-05-03T10:10:45.743Z,25.70
2023-05-03T10:13:36.590Z,25.80
2023-05-03T10:16:31.910Z,27.50
2023-05-03T10:19:27.793Z,24.90
2023-05-03T10:22:17.799Z,25.70
2023-05-03T10:25:09.000Z,24.00
2023-05-03T10:28:10.651Z,24.30
2023-05-03T10:31:00.988Z,25.00
2023-05-03T10:33:52.768Z,25.50
2023-05-03T10:36:50.234Z,27.20
2023-05-03T10:39:46.745Z,28.30
2023-05-03T10:42:40.382Z,26.40
2023-05-03T10:45:31.832Z,25.40
2023-05-03T10:48:21.007Z,26.10
2023-05-03T10:51:37.216Z,26.50
2023-05-03T10:54:27.764Z,26.70
2023-05-03T10:57:17.630Z,26.00
2023-05-03T11:00:13.008Z,26.50
2023-05-03T11:03:19.466Z,26.40
2023-05-03T11:06:10.093Z,26.70
2023-05-03T11:09:00.929Z,26.60
2023-05-03T11:11:54.471Z,27.40
2023-05-03T11:14:43.595Z,26.70
2023-05-03T11:17:34.142Z,26.80
2023-05-03T11:20:24.932Z,28.00
2023-05-03T11:23:15.618Z,29.60
2023-05-03T11:26:08.049Z,28.60
2023-05-03T11:28:58.731Z,27.30
2023-05-03T11:31:49.053Z,27.40
2023-05-03T11:34:40.645Z,25.70
2023-05-03T11:37:36.835Z,25.30
2023-05-03T11:40:28.675Z,26.60
2023-05-03T11:43:18.777Z,27.20
2023-05-03T11:46:10.312Z,27.60
2023-05-03T11:49:01.013Z,28.10
2023-05-03T11:51:55.302Z,26.30
2023-05-03T11:54:53.907Z,26.00
2023-05-03T11:57:44.918Z,27.20
2023-05-03T12:00:36.768Z,27.60
2023-05-03T12:03:33.670Z,26.50
2023-05-03T12:06:26.275Z,25.80
2023-05-03T12:09:19.007Z,26.30
2023-05-03T12:12:11.214Z,24.50
2023-05-03T12:15:08.022Z,26.00
2023-05-03T12:18:04.828Z,26.20
2023-05-03T12:24:01.242Z,25.40
2023-05-03T12:26:55.025Z,26.20
2023-05-03T12:29:51.666Z,25.10
2023-05-03T12:32:44.210Z,26.10
2023-05-03T12:35:41.048Z,25.90
2023-05-03T12:38:37.499Z,26.20
2023-05-03T12:44:29.175Z,27.70
2023-05-03T12:47:28.404Z,28.40
2023-05-03T12:50:24.999Z,25.50
2023-05-03T12:53:19.285Z,26.30
2023-05-03T12:56:13.376Z,27.60
2023-05-03T12:59:34.195Z,27.20
2023-05-03T13:08:17.909Z,27.40
2023-05-03T13:11:10.812Z,27.80
2023-05-03T13:14:02.560Z,25.10
2023-05-03T13:17:03.072Z,26.20
2023-05-03T13:19:53.986Z,26.00
2023-05-03T13:22:52.889Z,25.60
2023-05-03T13:25:44.298Z,26.60
2023-05-03T13:28:32.933Z,27.60
2023-05-03T13:31:34.532Z,27.40
2023-05-03T13:34:24.752Z,28.50
2023-05-03T13:37:18.389Z,29.70
2023-05-03T13:40:10.121Z,28.40
2023-05-03T13:43:01.183Z,27.80
2023-05-03T13:45:53.955Z,28.50
2023-05-03T13:48:44.323Z,29.20
2023-05-03T13:51:35.418Z,29.20
2023-05-03T13:54:25.711Z,28.60
2023-05-03T13:57:18.925Z,29.00
2023-05-03T14:00:14.144Z,29.50
2023-05-03T14:03:07.637Z,28.60
2023-05-03T14:05:58.728Z,27.90
2023-05-03T14:08:56.839Z,27.80
2023-05-03T14:11:50.838Z,29.30
2023-05-03T14:14:44.579Z,29.80
2023-05-03T14:17:34.959Z,30.10
2023-05-03T14:20:25.175Z,29.10
2023-05-03T14:23:15.156Z,28.70
2023-05-03T14:26:07.377Z,28.90
2023-05-03T14:28:59.593Z,28.90
2023-05-03T14:31:52.244Z,29.10
2023-05-03T14:34:44.530Z,27.90
2023-05-03T14:37:38.231Z,25.80
2023-05-03T14:40:30.151Z,26.90
2023-05-03T14:43:27.489Z,27.90
2023-05-03T14:46:26.962Z,28.70
2023-05-03T14:49:43.173Z,28.60
2023-05-03T14:52:53.027Z,29.00
2023-05-03T14:55:46.947Z,28.00
2023-05-03T14:58:42.578Z,27.10
2023-05-03T15:01:48.097Z,26.10
2023-05-03T15:04:41.817Z,24.30
2023-05-03T15:07:37.051Z,25.10
2023-05-03T15:10:55.010Z,26.40
2023-05-03T15:13:49.219Z,26.60
2023-05-03T15:20:38.012Z,27.30
2023-05-03T15:23:36.219Z,26.90
2023-05-03T15:30:24.239Z,26.30
2023-05-03T15:36:50.907Z,27.80
2023-05-03T15:39:49.173Z,28.00
2023-05-03T15:45:58.973Z,26.00
2023-05-03T15:48:58.260Z,26.40
2023-05-03T15:51:52.439Z,26.70
2023-05-03T15:54:47.447Z,26.50
2023-05-03T15:58:08.992Z,26.80
2023-05-03T16:01:14.797Z,26.70
2023-05-03T16:04:16.485Z,27.00
2023-05-03T16:07:12.872Z,26.80
2023-05-03T16:10:03.590Z,27.10
2023-05-03T16:13:04.440Z,27.40
2023-05-03T16:16:13.417Z,27.10
2023-05-03T16:19:21.293Z,26.80
2023-05-03T16:22:18.365Z,26.20
2023-05-03T16:25:14.805Z,25.90
2023-05-03T16:28:06.629Z,26.30
2023-05-03T16:31:06.150Z,26.40
2023-05-03T16:34:01.179Z,25.70
2023-05-03T16:37:00.611Z,25.50
2023-05-03T16:39:53.257Z,25.70
2023-05-03T16:42:48.559Z,25.30
2023-05-03T16:45:46.410Z,25.20
2023-05-03T16:48:53.952Z,25.40
2023-05-03T16:51:43.344Z,24.80
2023-05-03T16:54:41.079Z,24.90
2023-05-03T16:57:34.950Z,25.30
2023-05-03T17:00:23.226Z,25.40
2023-05-03T17:03:14.460Z,25.10
2023-05-03T17:06:05.292Z,24.40
2023-05-03T17:08:54.966Z,24.10
2023-05-03T17:11:42.774Z,24.10
2023-05-03T17:14:31.104Z,23.50
2023-05-03T17:17:29.541Z,23.50
2023-05-03T17:20:21.543Z,23.80
2023-05-03T17:23:12.726Z,23.70
2023-05-03T17:26:04.678Z,23.40
2023-05-03T17:29:09.279Z,23.40
2023-05-03T17:33:04.957Z,23.60
2023-05-03T17:35:26.858Z,23.30
2023-05-03T17:38:24.935Z,22.70
2023-05-03T17:42:07.994Z,22.60
2023-05-03T17:44:55.814Z,22.50
2023-05-03T17:47:46.712Z,22.30
2023-05-03T17:50:35.318Z,22.30
2023-05-03T17:53:33.423Z,22.60
2023-05-03T17:56:21.513Z,22.60
2023-05-03T17:59:10.032Z,22.50
2023-05-03T18:01:57.947Z,22.60
2023-05-03T18:04:45.861Z,22.30
2023-05-03T18:07:36.977Z,22.20
2023-05-03T18:10:27.831Z,21.60
2023-05-03T18:13:23.556Z,20.80
2023-05-03T18:16:11.808Z,20.40
2023-05-03T18:19:08.151Z,19.70
2023-05-03T18:21:58.338Z,19.50
2023-05-03T18:24:46.134Z,19.50
2023-05-03T18:27:38.143Z,19.10
2023-05-03T18:30:28.369Z,18.50
2023-05-03T18:33:19.166Z,18.20
2023-05-03T18:36:14.039Z,17.80
2023-05-03T18:39:01.627Z,17.40
2023-05-03T18:41:56.699Z,17.00
2023-05-03T18:44:51.832Z,16.70
2023-05-03T18:47:39.745Z,16.50
2023-05-03T18:50:27.600Z,16.10
2023-05-03T18:53:20.437Z,15.90
2023-05-03T18:56:12.349Z,15.80
2023-05-03T18:59:03.240Z,15.60
2023-05-03T19:01:50.989Z,15.40
2023-05-03T19:04:38.546Z,15.10
2023-05-03T19:07:26.194Z,14.80
2023-05-03T19:10:25.255Z,14.80
2023-05-03T19:13:14.782Z,14.60
2023-05-03T19:16:03.722Z,14.60
2023-05-03T19:18:51.827Z,14.50
2023-05-03T19:21:42.620Z,14.40
2023-05-03T19:24:30.251Z,14.20
2023-05-03T19:27:21.251Z,14.10
2023-05-03T19:30:10.385Z,14.00
2023-05-03T19:32:59.054Z,13.90
2023-05-03T19:35:46.806Z,13.90
2023-05-03T19:38:38.457Z,13.90
2023-05-03T19:41:26.243Z,13.80
2023-05-03T19:44:14.063Z,13.80
2023-05-03T19:47:01.565Z,13.60
2023-05-03T19:49:49.289Z,13.50
2023-05-03T19:52:40.483Z,13.50
2023-05-03T19:55:28.121Z,13.50
2023-05-03T19:58:15.790Z,13.40
2023-05-03T20:01:07.156Z,13.30
2023-05-03T20:03:55.318Z,13.20
2023-05-03T20:06:43.069Z,13.10
2023-05-03T20:09:30.900Z,13.00
2023-05-03T20:12:18.522Z,12.90
2023-05-03T20:15:07.252Z,12.80
2023-05-03T20:17:54.994Z,12.70
2023-05-03T20:20:42.659Z,12.60
2023-05-03T20:23:30.555Z,12.50
2023-05-03T20:26:19.046Z,12.40
2023-05-03T20:29:06.545Z,12.20
2023-05-03T20:31:54.081Z,12.20
2023-05-03T20:34:42.665Z,12.10
2023-05-03T20:37:30.315Z,12.10
2023-05-03T20:40:17.837Z,12.00
2023-05-03T20:43:05.367Z,12.00
2023-05-03T20:45:53.690Z,12.00
2023-05-03T20:48:41.172Z,12.10
2023-05-03T20:51:29.340Z,12.00
2023-05-03T20:54:17.031Z,11.90
2023-05-03T20:57:05.016Z,11.80
2023-05-03T20:59:52.458Z,11.70
2023-05-03T21:02:40.411Z,11.70
2023-05-03T21:05:30.918Z,11.60
2023-05-03T21:08:18.611Z,11.60
2023-05-03T21:11:06.960Z,11.60
2023-05-03T21:13:54.603Z,11.60
2023-05-03T21:16:42.439Z,11.50
2023-05-03T21:19:30.060Z,11.40
2023-05-03T21:22:18.076Z,11.30
2023-05-03T21:25:09.165Z,11.30
2023-05-03T21:27:57.201Z,11.20
2023-05-03T21:30:48.376Z,11.10
2023-05-03T21:33:35.854Z,11.10
2023-05-03T21:36:23.372Z,11.10
2023-05-03T21:39:11.028Z,11.00
2023-05-03T21:41:58.800Z,11.00
2023-05-03T21:44:49.457Z,11.00
2023-05-03T21:47:37.095Z,10.90
2023-05-03T21:50:25.073Z,10.90
2023-05-03T21:53:12.970Z,10.80
2023-05-03T21:56:01.347Z,10.80
2023-05-03T21:58:49.326Z,10.80
2023-05-03T22:01:37.019Z,10.80
2023-05-03T22:04:24.788Z,10.80
2023-05-03T22:07:12.404Z,10.80
2023-05-03T22:09:59.973Z,10.90
2023-05-03T22:12:48.388Z,10.70
2023-05-03T22:15:36.130Z,10.70
2023-05-03T22:18:25.945Z,10.60
2023-05-03T22:21:13.660Z,10.60
2023-05-03T22:24:01.942Z,10.40
2023-05-03T22:26:49.968Z,10.40
2023-05-03T22:29:38.053Z,10.30
2023-05-03T22:32:25.528Z,10.20
2023-05-03T22:35:14.761Z,10.20
2023-05-03T22:38:02.852Z,10.20
2023-05-03T22:40:50.488Z,10.10
2023-05-03T22:43:38.188Z,10.10
2023-05-03T22:46:26.061Z,10.00
2023-05-03T22:49:13.811Z,10.10
2023-05-03T22:52:04.080Z,10.10
2023-05-03T22:54:56.267Z,10.00
2023-05-03T22:57:43.947Z,9.90
2023-05-03T23:00:31.529Z,9.90
2023-05-03T23:03:19.571Z,9.80
2023-05-03T23:06:07.537Z,9.70
2023-05-03T23:08:55.130Z,9.60
2023-05-03T23:11:43.364Z,9.50
2023-05-03T23:14:31.168Z,9.50
2023-05-03T23:17:18.649Z,9.50
2023-05-03T23:20:06.904Z,9.40
2023-05-03T23:22:54.991Z,9.30
2023-05-03T23:25:42.848Z,9.40
2023-05-03T23:28:30.721Z,9.40
2023-05-03T23:31:18.548Z,9.30
2023-05-03T23:34:07.056Z,9.20
2023-05-03T23:36:54.469Z,9.20
2023-05-03T23:39:45.455Z,9.20
2023-05-03T23:42:33.116Z,9.00
2023-05-03T23:45:20.844Z,8.90
2023-05-03T23:48:08.535Z,8.90
2023-05-03T23:50:56.096Z,8.80
2023-05-03T23:53:43.631Z,8.70
2023-05-03T23:56:31.062Z,8.90
2023-05-03T23:59:18.536Z,8.80
